sensor_id;sensor_type;location;lat;lon;timestamp;temperature;humidity
51825;DHT22;37879;52.986;6.282;2023-02-19T00:01:16;8.90;99.90
51825;DHT22;37879;52.986;6.282;2023-02-19T00:03:47;8.90;99.90
51825;DHT22;37879;52.986;6.282;2023-02-19T00:06:14;9.00;99.90
51825;DHT22;37879;52.986;6.282;2023-02-19T00:08:40;9.00;99.90
51825;DHT22;37879;52.986;6.282;2023-02-19T00:11:07;9.00;99.90
51825;DHT22;37879;52.986;6.282;2023-02-19T00:13:39;8.90;99.90
51825;DHT22;37879;52.986;6.282;2023-02-19T00:16:09;9.00;99.90
51825;DHT22;37879;52.986;6.282;2023-02-19T00:18:35;9.00;99.90
51825;DHT22;37879;52.986;6.282;2023-02-19T00:21:01;9.40;99.90
51825;DHT22;37879;52.986;6.282;2023-02-19T00:23:27;9.00;99.90
51825;DHT22;37879;52.986;6.282;2023-02-19T00:25:53;9.00;99.90
51825;DHT22;37879;52.986;6.282;2023-02-19T00:28:20;9.50;99.90
51825;DHT22;37879;52.986;6.282;2023-02-19T00:30:45;9.00;99.90
51825;DHT22;37879;52.986;6.282;2023-02-19T00:33:11;9.00;99.90
51825;DHT22;37879;52.986;6.282;2023-02-19T00:35:36;9.00;99.90
51825;DHT22;37879;52.986;6.282;2023-02-19T00:38:03;9.00;99.90
51825;DHT22;37879;52.986;6.282;2023-02-19T00:40:29;9.00;99.90
51825;DHT22;37879;52.986;6.282;2023-02-19T00:42:55;9.00;99.90
51825;DHT22;37879;52.986;6.282;2023-02-19T00:45:20;9.00;99.90
51825;DHT22;37879;52.986;6.282;2023-02-19T00:47:46;9.50;99.90
51825;DHT22;37879;52.986;6.282;2023-02-19T00:50:12;9.00;99.90
51825;DHT22;37879;52.986;6.282;2023-02-19T00:52:37;9.00;99.90
51825;DHT22;37879;52.986;6.282;2023-02-19T00:55:04;9.00;99.90
51825;DHT22;37879;52.986;6.282;2023-02-19T00:57:29;8.90;99.90
51825;DHT22;37879;52.986;6.282;2023-02-19T00:59:55;9.50;99.90
51825;DHT22;37879;52.986;6.282;2023-02-19T01:02:21;8.90;99.90
51825;DHT22;37879;52.986;6.282;2023-02-19T01:04:46;8.90;99.90
51825;DHT22;37879;52.986;6.282;2023-02-19T01:07:12;9.50;99.90
51825;DHT22;37879;52.986;6.282;2023-02-19T01:09:37;8.90;99.90
51825;DHT22;37879;52.986;6.282;2023-02-19T01:12:04;8.80;99.90
51825;DHT22;37879;52.986;6.282;2023-02-19T01:14:30;8.80;99.90
51825;DHT22;37879;52.986;6.282;2023-02-19T01:16:56;8.80;99.90
51825;DHT22;37879;52.986;6.282;2023-02-19T01:19:21;8.80;99.90
51825;DHT22;37879;52.986;6.282;2023-02-19T01:21:47;8.80;99.90
51825;DHT22;37879;52.986;6.282;2023-02-19T01:24:13;8.80;99.90
51825;DHT22;37879;52.986;6.282;2023-02-19T01:26:38;8.80;99.90
51825;DHT22;37879;52.986;6.282;2023-02-19T01:29:05;8.80;99.90
51825;DHT22;37879;52.986;6.282;2023-02-19T01:31:31;8.70;99.90
51825;DHT22;37879;52.986;6.282;2023-02-19T01:33:59;9.60;99.90
51825;DHT22;37879;52.986;6.282;2023-02-19T01:36:26;8.70;99.90
51825;DHT22;37879;52.986;6.282;2023-02-19T01:38:52;8.70;99.90
51825;DHT22;37879;52.986;6.282;2023-02-19T01:41:23;8.70;99.90
51825;DHT22;37879;52.986;6.282;2023-02-19T01:44:56;8.60;99.90
51825;DHT22;37879;52.986;6.282;2023-02-19T01:46:52;8.60;99.90
51825;DHT22;37879;52.986;6.282;2023-02-19T01:49:34;8.60;99.90
51825;DHT22;37879;52.986;6.282;2023-02-19T01:52:15;8.60;99.90
51825;DHT22;37879;52.986;6.282;2023-02-19T01:54:44;8.50;99.90
51825;DHT22;37879;52.986;6.282;2023-02-19T01:57:18;8.60;99.90
51825;DHT22;37879;52.986;6.282;2023-02-19T01:59:46;8.50;99.90
51825;DHT22;37879;52.986;6.282;2023-02-19T02:02:12;8.50;99.90
51825;DHT22;37879;52.986;6.282;2023-02-19T02:04:38;8.50;99.90
51825;DHT22;37879;52.986;6.282;2023-02-19T02:07:05;8.50;99.90
51825;DHT22;37879;52.986;6.282;2023-02-19T02:09:54;9.20;99.90
51825;DHT22;37879;52.986;6.282;2023-02-19T02:12:38;8.50;99.90
51825;DHT22;37879;52.986;6.282;2023-02-19T02:15:04;8.40;99.90
51825;DHT22;37879;52.986;6.282;2023-02-19T02:18:19;8.40;99.90
51825;DHT22;37879;52.986;6.282;2023-02-19T02:28:22;8.40;99.90
51825;DHT22;37879;52.986;6.282;2023-02-19T02:31:01;8.40;99.90
51825;DHT22;37879;52.986;6.282;2023-02-19T02:36:22;8.40;99.90
51825;DHT22;37879;52.986;6.282;2023-02-19T02:38:51;8.40;99.90
51825;DHT22;37879;52.986;6.282;2023-02-19T02:41:19;8.40;99.90
51825;DHT22;37879;52.986;6.282;2023-02-19T02:43:45;8.40;99.90
51825;DHT22;37879;52.986;6.282;2023-02-19T02:46:12;8.40;99.90
51825;DHT22;37879;52.986;6.282;2023-02-19T02:48:48;8.70;99.90
51825;DHT22;37879;52.986;6.282;2023-02-19T02:56:49;8.40;99.90
51825;DHT22;37879;52.986;6.282;2023-02-19T02:59:17;8.30;99.90
51825;DHT22;37879;52.986;6.282;2023-02-19T03:01:58;9.10;99.90
51825;DHT22;37879;52.986;6.282;2023-02-19T03:04:54;8.30;99.90
51825;DHT22;37879;52.986;6.282;2023-02-19T03:10:13;8.30;99.90
51825;DHT22;37879;52.986;6.282;2023-02-19T03:12:44;8.30;99.90
51825;DHT22;37879;52.986;6.282;2023-02-19T03:15:32;8.70;99.90
51825;DHT22;37879;52.986;6.282;2023-02-19T03:18:20;8.70;99.90
51825;DHT22;37879;52.986;6.282;2023-02-19T03:21:06;8.20;99.90
51825;DHT22;37879;52.986;6.282;2023-02-19T03:23:34;8.20;99.90
51825;DHT22;37879;52.986;6.282;2023-02-19T03:26:20;8.20;99.90
51825;DHT22;37879;52.986;6.282;2023-02-19T03:28:49;8.10;99.90
51825;DHT22;37879;52.986;6.282;2023-02-19T03:31:34;8.10;99.90
51825;DHT22;37879;52.986;6.282;2023-02-19T03:34:07;8.00;99.90
51825;DHT22;37879;52.986;6.282;2023-02-19T03:36:43;8.00;99.90
51825;DHT22;37879;52.986;6.282;2023-02-19T03:39:13;8.00;99.90
51825;DHT22;37879;52.986;6.282;2023-02-19T03:47:31;8.10;99.90
51825;DHT22;37879;52.986;6.282;2023-02-19T03:50:17;8.10;99.90
51825;DHT22;37879;52.986;6.282;2023-02-19T03:57:57;7.90;99.90
51825;DHT22;37879;52.986;6.282;2023-02-19T04:00:37;9.40;99.90
51825;DHT22;37879;52.986;6.282;2023-02-19T04:03:19;7.60;99.90
51825;DHT22;37879;52.986;6.282;2023-02-19T04:05:52;7.50;99.90
51825;DHT22;37879;52.986;6.282;2023-02-19T04:08:21;8.70;99.90
51825;DHT22;37879;52.986;6.282;2023-02-19T04:10:49;8.50;99.90
51825;DHT22;37879;52.986;6.282;2023-02-19T04:13:28;7.40;99.90
51825;DHT22;37879;52.986;6.282;2023-02-19T04:15:56;7.30;99.90
51825;DHT22;37879;52.986;6.282;2023-02-19T04:18:29;7.20;99.90
51825;DHT22;37879;52.986;6.282;2023-02-19T04:20:56;7.10;99.90
51825;DHT22;37879;52.986;6.282;2023-02-19T04:23:25;7.20;99.90
51825;DHT22;37879;52.986;6.282;2023-02-19T04:25:55;7.10;99.90
51825;DHT22;37879;52.986;6.282;2023-02-19T04:28:22;7.10;99.90
51825;DHT22;37879;52.986;6.282;2023-02-19T04:30:47;7.00;99.90
51825;DHT22;37879;52.986;6.282;2023-02-19T04:33:13;6.90;99.90
51825;DHT22;37879;52.986;6.282;2023-02-19T04:35:39;6.80;99.90
51825;DHT22;37879;52.986;6.282;2023-02-19T04:38:04;6.70;99.90
51825;DHT22;37879;52.986;6.282;2023-02-19T04:40:30;8.10;99.90
51825;DHT22;37879;52.986;6.282;2023-02-19T04:42:56;6.60;99.90
51825;DHT22;37879;52.986;6.282;2023-02-19T04:45:21;6.60;99.90
51825;DHT22;37879;52.986;6.282;2023-02-19T04:47:47;6.60;99.90
51825;DHT22;37879;52.986;6.282;2023-02-19T04:50:12;6.60;99.90
51825;DHT22;37879;52.986;6.282;2023-02-19T04:52:38;6.60;99.90
51825;DHT22;37879;52.986;6.282;2023-02-19T04:55:04;7.50;99.90
51825;DHT22;37879;52.986;6.282;2023-02-19T04:57:30;6.60;99.90
51825;DHT22;37879;52.986;6.282;2023-02-19T04:59:56;6.50;99.90
51825;DHT22;37879;52.986;6.282;2023-02-19T05:02:21;6.60;99.90
51825;DHT22;37879;52.986;6.282;2023-02-19T05:04:47;6.60;99.90
51825;DHT22;37879;52.986;6.282;2023-02-19T05:07:13;7.30;99.90
51825;DHT22;37879;52.986;6.282;2023-02-19T05:09:39;6.50;99.90
51825;DHT22;37879;52.986;6.282;2023-02-19T05:12:04;6.50;99.90
51825;DHT22;37879;52.986;6.282;2023-02-19T05:14:30;6.50;99.90
51825;DHT22;37879;52.986;6.282;2023-02-19T05:16:56;7.90;99.90
51825;DHT22;37879;52.986;6.282;2023-02-19T05:19:21;7.20;99.90
51825;DHT22;37879;52.986;6.282;2023-02-19T05:21:47;6.50;99.90
51825;DHT22;37879;52.986;6.282;2023-02-19T05:24:13;6.50;99.90
51825;DHT22;37879;52.986;6.282;2023-02-19T05:26:38;6.40;99.90
51825;DHT22;37879;52.986;6.282;2023-02-19T05:29:04;6.40;99.90
51825;DHT22;37879;52.986;6.282;2023-02-19T05:31:30;7.10;99.90
51825;DHT22;37879;52.986;6.282;2023-02-19T05:33:58;6.40;99.90
51825;DHT22;37879;52.986;6.282;2023-02-19T05:36:24;6.30;99.90
51825;DHT22;37879;52.986;6.282;2023-02-19T05:38:54;6.30;99.90
51825;DHT22;37879;52.986;6.282;2023-02-19T05:41:29;6.30;99.90
51825;DHT22;37879;52.986;6.282;2023-02-19T05:43:56;6.20;99.90
51825;DHT22;37879;52.986;6.282;2023-02-19T05:46:24;6.20;99.90
51825;DHT22;37879;52.986;6.282;2023-02-19T05:48:51;6.20;99.90
51825;DHT22;37879;52.986;6.282;2023-02-19T05:51:19;6.20;99.90
51825;DHT22;37879;52.986;6.282;2023-02-19T05:53:46;6.20;99.90
51825;DHT22;37879;52.986;6.282;2023-02-19T05:56:38;6.20;99.90
51825;DHT22;37879;52.986;6.282;2023-02-19T05:59:16;6.10;99.90
51825;DHT22;37879;52.986;6.282;2023-02-19T06:01:42;6.70;99.90
51825;DHT22;37879;52.986;6.282;2023-02-19T06:04:09;6.10;99.90
51825;DHT22;37879;52.986;6.282;2023-02-19T06:06:35;6.10;99.90
51825;DHT22;37879;52.986;6.282;2023-02-19T06:09:02;6.00;99.90
51825;DHT22;37879;52.986;6.282;2023-02-19T06:11:28;6.00;99.90
51825;DHT22;37879;52.986;6.282;2023-02-19T06:13:54;6.30;99.90
51825;DHT22;37879;52.986;6.282;2023-02-19T06:16:20;6.00;99.90
51825;DHT22;37879;52.986;6.282;2023-02-19T06:18:46;6.00;99.90
51825;DHT22;37879;52.986;6.282;2023-02-19T06:21:13;5.90;99.90
51825;DHT22;37879;52.986;6.282;2023-02-19T06:23:40;5.90;99.90
51825;DHT22;37879;52.986;6.282;2023-02-19T06:26:10;5.90;99.90
51825;DHT22;37879;52.986;6.282;2023-02-19T06:28:36;5.80;99.90
51825;DHT22;37879;52.986;6.282;2023-02-19T06:31:03;5.80;99.90
51825;DHT22;37879;52.986;6.282;2023-02-19T06:33:28;5.60;99.90
51825;DHT22;37879;52.986;6.282;2023-02-19T06:35:57;5.90;99.90
51825;DHT22;37879;52.986;6.282;2023-02-19T06:38:24;6.60;99.90
51825;DHT22;37879;52.986;6.282;2023-02-19T06:40:50;5.60;99.90
51825;DHT22;37879;52.986;6.282;2023-02-19T06:43:15;6.10;99.90
51825;DHT22;37879;52.986;6.282;2023-02-19T06:45:41;5.80;99.90
51825;DHT22;37879;52.986;6.282;2023-02-19T06:48:07;5.50;99.90
51825;DHT22;37879;52.986;6.282;2023-02-19T06:50:32;5.50;99.90
51825;DHT22;37879;52.986;6.282;2023-02-19T06:52:58;5.50;99.90
51825;DHT22;37879;52.986;6.282;2023-02-19T06:55:23;5.50;99.90
51825;DHT22;37879;52.986;6.282;2023-02-19T06:57:49;5.50;99.90
51825;DHT22;37879;52.986;6.282;2023-02-19T07:00:15;5.50;99.90
51825;DHT22;37879;52.986;6.282;2023-02-19T07:02:41;5.50;99.90
51825;DHT22;37879;52.986;6.282;2023-02-19T07:05:06;5.40;99.90
51825;DHT22;37879;52.986;6.282;2023-02-19T07:07:32;5.40;99.90
51825;DHT22;37879;52.986;6.282;2023-02-19T07:09:57;5.40;99.90
51825;DHT22;37879;52.986;6.282;2023-02-19T07:12:23;5.40;99.90
51825;DHT22;37879;52.986;6.282;2023-02-19T07:14:49;5.40;99.90
51825;DHT22;37879;52.986;6.282;2023-02-19T07:17:14;5.70;99.90
51825;DHT22;37879;52.986;6.282;2023-02-19T07:19:40;5.40;99.90
51825;DHT22;37879;52.986;6.282;2023-02-19T07:22:06;5.30;99.90
51825;DHT22;37879;52.986;6.282;2023-02-19T07:24:31;5.80;99.90
51825;DHT22;37879;52.986;6.282;2023-02-19T07:26:57;5.30;99.90
51825;DHT22;37879;52.986;6.282;2023-02-19T07:29:23;5.30;99.90
51825;DHT22;37879;52.986;6.282;2023-02-19T07:31:48;5.30;99.90
51825;DHT22;37879;52.986;6.282;2023-02-19T07:34:14;5.40;99.90
51825;DHT22;37879;52.986;6.282;2023-02-19T07:36:39;5.40;99.90
51825;DHT22;37879;52.986;6.282;2023-02-19T07:39:05;5.50;99.90
51825;DHT22;37879;52.986;6.282;2023-02-19T07:41:31;5.40;99.90
51825;DHT22;37879;52.986;6.282;2023-02-19T07:43:57;5.40;99.90
51825;DHT22;37879;52.986;6.282;2023-02-19T07:46:23;5.40;99.90
51825;DHT22;37879;52.986;6.282;2023-02-19T07:48:48;5.30;99.90
51825;DHT22;37879;52.986;6.282;2023-02-19T07:51:16;5.30;99.90
51825;DHT22;37879;52.986;6.282;2023-02-19T07:53:44;5.20;99.90
51825;DHT22;37879;52.986;6.282;2023-02-19T07:56:11;5.30;99.90
51825;DHT22;37879;52.986;6.282;2023-02-19T07:58:37;5.20;99.90
51825;DHT22;37879;52.986;6.282;2023-02-19T08:01:13;5.20;99.90
51825;DHT22;37879;52.986;6.282;2023-02-19T08:03:40;5.20;99.90
51825;DHT22;37879;52.986;6.282;2023-02-19T08:06:06;6.00;99.90
51825;DHT22;37879;52.986;6.282;2023-02-19T08:08:32;5.20;99.90
51825;DHT22;37879;52.986;6.282;2023-02-19T08:11:03;5.20;99.90
51825;DHT22;37879;52.986;6.282;2023-02-19T08:13:49;5.20;99.90
51825;DHT22;37879;52.986;6.282;2023-02-19T08:16:15;5.20;99.90
51825;DHT22;37879;52.986;6.282;2023-02-19T08:18:42;5.20;99.90
51825;DHT22;37879;52.986;6.282;2023-02-19T08:21:08;5.20;99.90
51825;DHT22;37879;52.986;6.282;2023-02-19T08:23:34;5.20;99.90
51825;DHT22;37879;52.986;6.282;2023-02-19T08:26:01;6.50;99.90
51825;DHT22;37879;52.986;6.282;2023-02-19T08:28:27;5.70;99.90
51825;DHT22;37879;52.986;6.282;2023-02-19T08:30:58;6.40;99.90
51825;DHT22;37879;52.986;6.282;2023-02-19T08:33:24;6.60;99.90
51825;DHT22;37879;52.986;6.282;2023-02-19T08:35:49;5.30;99.90
51825;DHT22;37879;52.986;6.282;2023-02-19T08:38:15;5.30;99.90
51825;DHT22;37879;52.986;6.282;2023-02-19T08:40:41;5.70;99.90
51825;DHT22;37879;52.986;6.282;2023-02-19T08:43:10;5.30;99.90
51825;DHT22;37879;52.986;6.282;2023-02-19T08:45:37;5.40;99.90
51825;DHT22;37879;52.986;6.282;2023-02-19T08:48:04;5.40;99.90
51825;DHT22;37879;52.986;6.282;2023-02-19T08:50:30;5.50;99.90
51825;DHT22;37879;52.986;6.282;2023-02-19T08:52:58;5.50;99.90
51825;DHT22;37879;52.986;6.282;2023-02-19T08:55:23;5.50;99.90
51825;DHT22;37879;52.986;6.282;2023-02-19T08:57:49;5.60;99.90
51825;DHT22;37879;52.986;6.282;2023-02-19T09:00:15;5.60;99.90
51825;DHT22;37879;52.986;6.282;2023-02-19T09:02:40;5.60;99.90
51825;DHT22;37879;52.986;6.282;2023-02-19T09:05:06;5.70;99.90
51825;DHT22;37879;52.986;6.282;2023-02-19T09:07:32;6.30;99.90
51825;DHT22;37879;52.986;6.282;2023-02-19T09:09:59;5.70;99.90
51825;DHT22;37879;52.986;6.282;2023-02-19T09:12:25;5.70;99.90
51825;DHT22;37879;52.986;6.282;2023-02-19T09:14:50;6.30;99.90
51825;DHT22;37879;52.986;6.282;2023-02-19T09:17:16;6.70;99.90
51825;DHT22;37879;52.986;6.282;2023-02-19T09:19:42;5.40;99.90
51825;DHT22;37879;52.986;6.282;2023-02-19T09:22:08;5.40;99.90
51825;DHT22;37879;52.986;6.282;2023-02-19T09:24:33;5.50;99.90
51825;DHT22;37879;52.986;6.282;2023-02-19T09:26:59;5.60;99.90
51825;DHT22;37879;52.986;6.282;2023-02-19T09:29:26;5.50;99.90
51825;DHT22;37879;52.986;6.282;2023-02-19T09:31:58;5.50;99.90
51825;DHT22;37879;52.986;6.282;2023-02-19T09:34:25;5.60;99.90
51825;DHT22;37879;52.986;6.282;2023-02-19T09:36:51;5.70;99.90
51825;DHT22;37879;52.986;6.282;2023-02-19T09:39:18;5.80;99.90
51825;DHT22;37879;52.986;6.282;2023-02-19T09:44:38;6.10;99.90
51825;DHT22;37879;52.986;6.282;2023-02-19T09:47:10;6.30;99.90
51825;DHT22;37879;52.986;6.282;2023-02-19T09:49:41;6.30;99.90
51825;DHT22;37879;52.986;6.282;2023-02-19T09:55:26;6.40;99.90
51825;DHT22;37879;52.986;6.282;2023-02-19T09:57:53;6.60;99.90
51825;DHT22;37879;52.986;6.282;2023-02-19T10:00:25;6.70;99.90
51825;DHT22;37879;52.986;6.282;2023-02-19T10:02:54;6.80;99.90
51825;DHT22;37879;52.986;6.282;2023-02-19T10:05:22;6.70;99.90
51825;DHT22;37879;52.986;6.282;2023-02-19T10:07:51;6.60;99.90
51825;DHT22;37879;52.986;6.282;2023-02-19T10:10:28;6.70;99.90
51825;DHT22;37879;52.986;6.282;2023-02-19T10:12:58;6.60;99.90
51825;DHT22;37879;52.986;6.282;2023-02-19T10:15:58;6.60;99.90
51825;DHT22;37879;52.986;6.282;2023-02-19T10:18:27;6.70;99.90
51825;DHT22;37879;52.986;6.282;2023-02-19T10:20:54;6.80;99.90
51825;DHT22;37879;52.986;6.282;2023-02-19T10:23:20;6.80;99.90
51825;DHT22;37879;52.986;6.282;2023-02-19T10:25:49;6.90;99.90
51825;DHT22;37879;52.986;6.282;2023-02-19T10:28:21;7.00;99.90
51825;DHT22;37879;52.986;6.282;2023-02-19T10:30:52;6.20;99.90
51825;DHT22;37879;52.986;6.282;2023-02-19T10:33:18;7.20;99.90
51825;DHT22;37879;52.986;6.282;2023-02-19T10:38:16;6.30;99.90
51825;DHT22;37879;52.986;6.282;2023-02-19T10:40:44;6.90;99.90
51825;DHT22;37879;52.986;6.282;2023-02-19T10:43:23;6.90;99.90
51825;DHT22;37879;52.986;6.282;2023-02-19T10:45:56;6.90;99.90
51825;DHT22;37879;52.986;6.282;2023-02-19T10:48:23;6.90;99.90
51825;DHT22;37879;52.986;6.282;2023-02-19T10:51:00;7.10;99.90
51825;DHT22;37879;52.986;6.282;2023-02-19T10:54:02;7.20;99.90
51825;DHT22;37879;52.986;6.282;2023-02-19T10:56:29;7.40;99.90
51825;DHT22;37879;52.986;6.282;2023-02-19T10:59:14;8.30;99.90
51825;DHT22;37879;52.986;6.282;2023-02-19T11:01:56;7.50;99.90
51825;DHT22;37879;52.986;6.282;2023-02-19T11:04:22;7.50;99.90
51825;DHT22;37879;52.986;6.282;2023-02-19T11:06:48;7.50;99.90
51825;DHT22;37879;52.986;6.282;2023-02-19T11:09:27;8.40;99.90
51825;DHT22;37879;52.986;6.282;2023-02-19T11:11:55;7.20;99.90
51825;DHT22;37879;52.986;6.282;2023-02-19T11:14:23;7.90;99.90
51825;DHT22;37879;52.986;6.282;2023-02-19T11:16:52;7.30;99.90
51825;DHT22;37879;52.986;6.282;2023-02-19T11:19:39;7.30;99.90
51825;DHT22;37879;52.986;6.282;2023-02-19T11:22:28;7.50;99.90
51825;DHT22;37879;52.986;6.282;2023-02-19T11:24:55;7.70;99.90
51825;DHT22;37879;52.986;6.282;2023-02-19T11:27:24;7.90;99.90
51825;DHT22;37879;52.986;6.282;2023-02-19T11:29:49;8.10;99.90
51825;DHT22;37879;52.986;6.282;2023-02-19T11:32:28;8.20;99.90
51825;DHT22;37879;52.986;6.282;2023-02-19T11:37:56;8.20;99.90
51825;DHT22;37879;52.986;6.282;2023-02-19T11:40:39;8.20;99.90
51825;DHT22;37879;52.986;6.282;2023-02-19T11:43:17;8.30;99.90
51825;DHT22;37879;52.986;6.282;2023-02-19T11:46:07;8.30;99.90
51825;DHT22;37879;52.986;6.282;2023-02-19T11:48:53;8.60;99.90
51825;DHT22;37879;52.986;6.282;2023-02-19T11:52:00;8.50;99.90
51825;DHT22;37879;52.986;6.282;2023-02-19T12:00:00;8.50;99.90
51825;DHT22;37879;52.986;6.282;2023-02-19T12:03:40;8.50;99.90
51825;DHT22;37879;52.986;6.282;2023-02-19T12:08:20;8.60;99.90
51825;DHT22;37879;52.986;6.282;2023-02-19T12:27:45;8.50;99.90
51825;DHT22;37879;52.986;6.282;2023-02-19T12:38:20;9.00;99.90
51825;DHT22;37879;52.986;6.282;2023-02-19T12:40:57;10.40;99.90
51825;DHT22;37879;52.986;6.282;2023-02-19T12:43:26;9.20;99.90
51825;DHT22;37879;52.986;6.282;2023-02-19T12:45:59;9.10;99.90
51825;DHT22;37879;52.986;6.282;2023-02-19T12:48:42;9.10;99.90
51825;DHT22;37879;52.986;6.282;2023-02-19T12:54:01;9.10;99.90
51825;DHT22;37879;52.986;6.282;2023-02-19T12:56:35;9.00;99.90
51825;DHT22;37879;52.986;6.282;2023-02-19T12:59:10;9.00;99.90
51825;DHT22;37879;52.986;6.282;2023-02-19T13:01:46;8.90;99.90
51825;DHT22;37879;52.986;6.282;2023-02-19T13:04:27;8.90;99.90
51825;DHT22;37879;52.986;6.282;2023-02-19T13:07:19;8.90;99.90
51825;DHT22;37879;52.986;6.282;2023-02-19T13:09:55;8.90;99.90
51825;DHT22;37879;52.986;6.282;2023-02-19T13:12:33;9.00;99.90
51825;DHT22;37879;52.986;6.282;2023-02-19T13:15:03;8.80;99.90
51825;DHT22;37879;52.986;6.282;2023-02-19T13:20:03;8.80;99.90
51825;DHT22;37879;52.986;6.282;2023-02-19T13:22:45;8.70;99.90
51825;DHT22;37879;52.986;6.282;2023-02-19T13:31:06;8.10;99.90
51825;DHT22;37879;52.986;6.282;2023-02-19T13:33:43;8.20;99.90
51825;DHT22;37879;52.986;6.282;2023-02-19T13:36:15;8.20;99.90
51825;DHT22;37879;52.986;6.282;2023-02-19T13:38:46;8.20;99.90
51825;DHT22;37879;52.986;6.282;2023-02-19T13:41:18;8.40;99.90
51825;DHT22;37879;52.986;6.282;2023-02-19T13:43:45;8.20;99.90
51825;DHT22;37879;52.986;6.282;2023-02-19T13:46:18;8.30;99.90
51825;DHT22;37879;52.986;6.282;2023-02-19T13:48:44;8.60;99.90
51825;DHT22;37879;52.986;6.282;2023-02-19T13:59:24;8.20;99.90
51825;DHT22;37879;52.986;6.282;2023-02-19T14:19:53;8.40;99.90
51825;DHT22;37879;52.986;6.282;2023-02-19T14:25:44;8.40;99.90
51825;DHT22;37879;52.986;6.282;2023-02-19T14:28:35;8.50;99.90
51825;DHT22;37879;52.986;6.282;2023-02-19T14:31:06;8.40;99.90
51825;DHT22;37879;52.986;6.282;2023-02-19T14:33:36;8.50;99.90
51825;DHT22;37879;52.986;6.282;2023-02-19T14:39:04;8.50;99.90
51825;DHT22;37879;52.986;6.282;2023-02-19T14:41:33;8.40;99.90
51825;DHT22;37879;52.986;6.282;2023-02-19T14:44:02;8.80;99.90
51825;DHT22;37879;52.986;6.282;2023-02-19T14:46:33;8.40;99.90
51825;DHT22;37879;52.986;6.282;2023-02-19T14:49:26;9.00;99.90
51825;DHT22;37879;52.986;6.282;2023-02-19T14:52:10;8.30;99.90
51825;DHT22;37879;52.986;6.282;2023-02-19T14:54:41;8.20;99.90
51825;DHT22;37879;52.986;6.282;2023-02-19T14:57:31;8.20;99.90
51825;DHT22;37879;52.986;6.282;2023-02-19T14:59:59;8.20;99.90
51825;DHT22;37879;52.986;6.282;2023-02-19T15:02:27;8.10;99.90
51825;DHT22;37879;52.986;6.282;2023-02-19T15:04:54;8.10;99.90
51825;DHT22;37879;52.986;6.282;2023-02-19T15:07:30;8.00;99.90
51825;DHT22;37879;52.986;6.282;2023-02-19T15:09:59;7.90;99.90
51825;DHT22;37879;52.986;6.282;2023-02-19T15:12:33;7.90;99.90
51825;DHT22;37879;52.986;6.282;2023-02-19T15:15:02;7.80;99.90
51825;DHT22;37879;52.986;6.282;2023-02-19T15:17:31;8.30;99.90
51825;DHT22;37879;52.986;6.282;2023-02-19T15:20:02;7.90;99.90
51825;DHT22;37879;52.986;6.282;2023-02-19T15:22:29;7.80;99.90
51825;DHT22;37879;52.986;6.282;2023-02-19T15:25:02;7.90;99.90
51825;DHT22;37879;52.986;6.282;2023-02-19T15:27:29;7.90;99.90
51825;DHT22;37879;52.986;6.282;2023-02-19T15:29:57;8.00;99.90
51825;DHT22;37879;52.986;6.282;2023-02-19T15:32:24;8.10;99.90
51825;DHT22;37879;52.986;6.282;2023-02-19T15:34:55;8.10;99.90
51825;DHT22;37879;52.986;6.282;2023-02-19T15:37:23;8.10;99.90
51825;DHT22;37879;52.986;6.282;2023-02-19T15:39:50;8.10;99.90
51825;DHT22;37879;52.986;6.282;2023-02-19T15:42:23;8.10;99.90
51825;DHT22;37879;52.986;6.282;2023-02-19T15:47:42;7.90;99.90
51825;DHT22;37879;52.986;6.282;2023-02-19T15:50:16;7.90;99.90
51825;DHT22;37879;52.986;6.282;2023-02-19T15:53:00;7.60;99.90
51825;DHT22;37879;52.986;6.282;2023-02-19T15:58:35;7.70;99.90
51825;DHT22;37879;52.986;6.282;2023-02-19T16:01:21;7.60;99.90
51825;DHT22;37879;52.986;6.282;2023-02-19T16:03:50;7.60;99.90
51825;DHT22;37879;52.986;6.282;2023-02-19T16:06:17;7.60;99.90
51825;DHT22;37879;52.986;6.282;2023-02-19T16:13:49;7.50;99.90
51825;DHT22;37879;52.986;6.282;2023-02-19T16:16:26;7.40;99.90
51825;DHT22;37879;52.986;6.282;2023-02-19T16:18:54;7.90;99.90
51825;DHT22;37879;52.986;6.282;2023-02-19T16:21:23;7.20;99.90
51825;DHT22;37879;52.986;6.282;2023-02-19T16:23:52;7.10;99.90
51825;DHT22;37879;52.986;6.282;2023-02-19T16:26:23;7.00;99.90
51825;DHT22;37879;52.986;6.282;2023-02-19T16:28:50;7.00;99.90
51825;DHT22;37879;52.986;6.282;2023-02-19T16:31:19;7.00;99.90
51825;DHT22;37879;52.986;6.282;2023-02-19T16:33:46;7.00;99.90
51825;DHT22;37879;52.986;6.282;2023-02-19T16:36:36;7.00;99.90
51825;DHT22;37879;52.986;6.282;2023-02-19T16:46:47;6.90;99.90
51825;DHT22;37879;52.986;6.282;2023-02-19T16:49:14;6.90;99.90
51825;DHT22;37879;52.986;6.282;2023-02-19T16:51:39;6.80;99.90
51825;DHT22;37879;52.986;6.282;2023-02-19T16:54:05;6.80;99.90
51825;DHT22;37879;52.986;6.282;2023-02-19T16:56:31;7.00;99.90
51825;DHT22;37879;52.986;6.282;2023-02-19T16:58:57;7.40;99.90
51825;DHT22;37879;52.986;6.282;2023-02-19T17:01:23;6.70;99.90
51825;DHT22;37879;52.986;6.282;2023-02-19T17:03:49;5.20;99.90
51825;DHT22;37879;52.986;6.282;2023-02-19T17:06:15;6.60;99.90
51825;DHT22;37879;52.986;6.282;2023-02-19T17:08:43;6.70;99.90
51825;DHT22;37879;52.986;6.282;2023-02-19T17:11:14;6.60;99.90
51825;DHT22;37879;52.986;6.282;2023-02-19T17:13:41;6.50;99.90
51825;DHT22;37879;52.986;6.282;2023-02-19T17:16:20;6.50;99.90
51825;DHT22;37879;52.986;6.282;2023-02-19T17:18:47;6.50;99.90
51825;DHT22;37879;52.986;6.282;2023-02-19T17:21:20;6.40;99.90
51825;DHT22;37879;52.986;6.282;2023-02-19T17:23:46;6.40;99.90
51825;DHT22;37879;52.986;6.282;2023-02-19T17:26:20;6.30;99.90
51825;DHT22;37879;52.986;6.282;2023-02-19T17:28:46;6.30;99.90
51825;DHT22;37879;52.986;6.282;2023-02-19T17:31:12;6.20;99.90
51825;DHT22;37879;52.986;6.282;2023-02-19T17:33:42;6.20;99.90
51825;DHT22;37879;52.986;6.282;2023-02-19T17:36:15;6.80;99.90
51825;DHT22;37879;52.986;6.282;2023-02-19T17:38:41;6.00;99.90
51825;DHT22;37879;52.986;6.282;2023-02-19T17:41:07;6.00;99.90
51825;DHT22;37879;52.986;6.282;2023-02-19T17:43:33;5.90;99.90
51825;DHT22;37879;52.986;6.282;2023-02-19T17:45:58;5.90;99.90
51825;DHT22;37879;52.986;6.282;2023-02-19T17:48:24;5.90;99.90
51825;DHT22;37879;52.986;6.282;2023-02-19T17:50:49;5.80;99.90
51825;DHT22;37879;52.986;6.282;2023-02-19T17:53:28;5.80;99.90
51825;DHT22;37879;52.986;6.282;2023-02-19T17:56:01;5.70;99.90
51825;DHT22;37879;52.986;6.282;2023-02-19T17:58:42;5.70;99.90
51825;DHT22;37879;52.986;6.282;2023-02-19T18:01:10;5.40;99.90
51825;DHT22;37879;52.986;6.282;2023-02-19T18:03:36;5.60;99.90
51825;DHT22;37879;52.986;6.282;2023-02-19T18:06:03;5.70;99.90
51825;DHT22;37879;52.986;6.282;2023-02-19T18:08:28;6.00;99.90
51825;DHT22;37879;52.986;6.282;2023-02-19T18:10:54;5.70;99.90
51825;DHT22;37879;52.986;6.282;2023-02-19T18:13:23;5.60;99.90
51825;DHT22;37879;52.986;6.282;2023-02-19T18:15:49;5.80;99.90
51825;DHT22;37879;52.986;6.282;2023-02-19T18:18:14;5.80;99.90
51825;DHT22;37879;52.986;6.282;2023-02-19T18:20:40;6.50;99.90